createdAt,value
2024-03-15T00:02:05.818Z,8.57
2024-03-15T00:04:34.032Z,9.13
2024-03-15T00:07:02.527Z,10.47
2024-03-15T00:09:31.158Z,6.77
2024-03-15T00:12:00.649Z,9.03
2024-03-15T00:14:29.281Z,9.20
2024-03-15T00:16:57.582Z,7.60
2024-03-15T00:19:26.016Z,7.67
2024-03-15T00:21:54.459Z,9.70
2024-03-15T00:24:22.694Z,10.83
2024-03-15T00:26:50.972Z,8.17
2024-03-15T00:29:19.702Z,7.40
2024-03-15T00:31:47.830Z,9.43
2024-03-15T00:34:15.994Z,9.07
2024-03-15T00:36:45.343Z,6.70
2024-03-15T00:39:13.676Z,10.20
2024-03-15T00:41:41.841Z,7.43
2024-03-15T00:44:09.985Z,7.27
2024-03-15T00:46:39.011Z,7.40
2024-03-15T00:49:07.530Z,14.90
2024-03-15T00:51:36.650Z,9.40
2024-03-15T00:54:05.418Z,9.23
2024-03-15T00:56:33.615Z,7.33
2024-03-15T00:59:01.795Z,7.97
2024-03-15T01:01:30.383Z,9.40
2024-03-15T01:03:58.756Z,10.97
2024-03-15T01:06:27.149Z,8.30
2024-03-15T01:08:54.363Z,7.30
2024-03-15T01:11:22.765Z,8.20
2024-03-15T01:13:55.239Z,8.37
2024-03-15T01:16:23.603Z,9.60
2024-03-15T01:18:51.861Z,8.40
2024-03-15T01:21:20.084Z,7.27
2024-03-15T01:23:48.986Z,8.37
2024-03-15T01:26:17.274Z,6.47
2024-03-15T01:28:45.386Z,8.20
2024-03-15T01:31:13.507Z,8.50
2024-03-15T01:33:41.681Z,12.47
2024-03-15T01:36:09.900Z,9.03
2024-03-15T01:38:38.179Z,7.07
2024-03-15T01:41:06.953Z,8.63
2024-03-15T01:43:35.127Z,11.97
2024-03-15T01:46:03.236Z,8.20
2024-03-15T01:48:31.437Z,6.77
2024-03-15T01:50:59.601Z,7.93
2024-03-15T01:53:27.800Z,5.57
2024-03-15T01:55:55.934Z,9.40
2024-03-15T01:58:25.606Z,9.47
2024-03-15T02:00:53.865Z,6.97
2024-03-15T02:03:22.094Z,9.97
2024-03-15T02:05:50.431Z,8.60
2024-03-15T02:08:20.214Z,9.03
2024-03-15T02:10:48.506Z,8.77
2024-03-15T02:13:17.068Z,7.80
2024-03-15T02:15:45.289Z,10.57
2024-03-15T02:18:13.579Z,9.57
2024-03-15T02:20:42.351Z,8.53
2024-03-15T02:23:10.738Z,6.50
2024-03-15T02:25:38.881Z,9.27
2024-03-15T02:28:08.179Z,7.93
2024-03-15T02:30:36.599Z,6.40
2024-03-15T02:33:05.079Z,8.10
2024-03-15T02:35:34.215Z,11.03
2024-03-15T02:38:02.478Z,7.97
2024-03-15T02:40:30.645Z,7.23
2024-03-15T02:42:59.053Z,8.07
2024-03-15T02:45:27.504Z,13.80
2024-03-15T02:47:55.931Z,8.53
2024-03-15T02:50:24.082Z,6.83
2024-03-15T02:52:52.200Z,7.33
2024-03-15T02:55:20.399Z,7.00
2024-03-15T02:57:48.691Z,6.43
2024-03-15T03:00:17.204Z,7.87
2024-03-15T03:02:45.384Z,7.47
2024-03-15T03:05:14.336Z,4.50
2024-03-15T03:07:42.462Z,7.30
2024-03-15T03:10:10.730Z,6.83
2024-03-15T03:12:39.001Z,4.97
2024-03-15T03:15:07.818Z,7.27
2024-03-15T03:17:36.109Z,6.47
2024-03-15T03:20:12.430Z,8.30
2024-03-15T03:22:40.647Z,4.97
2024-03-15T03:25:11.153Z,5.73
2024-03-15T03:27:39.417Z,7.60
2024-03-15T03:30:08.230Z,11.57
2024-03-15T03:32:37.358Z,5.90
2024-03-15T03:35:05.925Z,4.27
2024-03-15T03:37:33.125Z,7.20
2024-03-15T03:40:01.507Z,8.80
2024-03-15T03:42:30.218Z,4.97
2024-03-15T03:44:59.214Z,5.43
2024-03-15T03:47:27.414Z,5.80
2024-03-15T03:49:55.577Z,4.60
2024-03-15T03:52:23.879Z,6.90
2024-03-15T03:54:52.059Z,8.03
2024-03-15T03:57:35.327Z,11.53
2024-03-15T04:00:14.855Z,7.43
2024-03-15T04:02:46.705Z,6.27
2024-03-15T04:05:15.528Z,5.50
2024-03-15T04:07:45.947Z,8.53
2024-03-15T04:10:14.478Z,6.10
2024-03-15T04:12:43.992Z,5.87
2024-03-15T04:15:24.602Z,5.53
2024-03-15T04:17:59.131Z,11.57
2024-03-15T04:20:28.379Z,4.40
2024-03-15T04:22:57.593Z,5.90
2024-03-15T04:25:27.352Z,7.30
2024-03-15T04:27:56.698Z,6.80
2024-03-15T04:30:25.328Z,6.13
2024-03-15T04:32:57.043Z,6.83
2024-03-15T04:35:28.651Z,7.47
2024-03-15T04:37:57.072Z,7.80
2024-03-15T04:40:27.326Z,11.80
2024-03-15T04:42:58.092Z,8.03
2024-03-15T04:45:26.617Z,6.07
2024-03-15T04:47:55.692Z,7.03
2024-03-15T04:50:24.068Z,7.73
2024-03-15T04:52:54.210Z,6.57
2024-03-15T04:55:23.096Z,8.33
2024-03-15T04:57:52.141Z,4.83
2024-03-15T05:00:22.242Z,6.63
2024-03-15T05:02:52.311Z,9.67
2024-03-15T05:05:22.939Z,7.93
2024-03-15T05:07:51.709Z,6.57
2024-03-15T05:10:20.216Z,8.17
2024-03-15T05:12:49.448Z,7.77
2024-03-15T05:15:17.973Z,10.77
2024-03-15T05:17:46.488Z,7.93
2024-03-15T05:20:15.056Z,6.77
2024-03-15T05:22:45.573Z,9.53
2024-03-15T05:25:16.791Z,7.57
2024-03-15T05:27:45.936Z,7.70
2024-03-15T05:30:15.889Z,9.27
2024-03-15T05:32:44.673Z,6.77
2024-03-15T05:35:13.058Z,7.23
2024-03-15T05:37:41.465Z,7.47
2024-03-15T05:40:11.108Z,10.37
2024-03-15T05:42:39.354Z,6.93
2024-03-15T05:45:08.101Z,6.33
2024-03-15T05:47:36.968Z,5.00
2024-03-15T05:50:05.989Z,5.97
2024-03-15T05:52:34.687Z,6.37
2024-03-15T05:55:03.349Z,8.30
2024-03-15T05:57:31.904Z,9.00
2024-03-15T06:00:04.763Z,9.33
2024-03-15T06:02:32.885Z,12.27
2024-03-15T06:05:01.047Z,8.03
2024-03-15T06:07:29.820Z,5.27
2024-03-15T06:09:58.124Z,9.57
2024-03-15T06:12:28.881Z,8.40
2024-03-15T06:14:57.716Z,11.63
2024-03-15T06:17:25.919Z,11.73
2024-03-15T06:19:57.099Z,11.57
2024-03-15T06:22:25.511Z,11.23
2024-03-15T06:24:56.164Z,11.57
2024-03-15T06:27:24.450Z,8.23
2024-03-15T06:29:54.037Z,9.07
2024-03-15T06:32:27.640Z,7.80
2024-03-15T06:34:56.842Z,7.00
2024-03-15T06:37:26.691Z,9.40
2024-03-15T06:40:05.131Z,10.50
2024-03-15T06:43:00.157Z,11.93
2024-03-15T06:45:45.571Z,11.03
2024-03-15T06:48:19.178Z,9.87
2024-03-15T06:50:51.536Z,8.97
2024-03-15T06:53:19.652Z,13.77
2024-03-15T06:55:48.616Z,8.97
2024-03-15T06:58:23.742Z,11.50
2024-03-15T07:00:53.034Z,8.80
2024-03-15T07:03:21.398Z,9.03
2024-03-15T07:05:49.677Z,10.83
2024-03-15T07:08:17.887Z,9.37
2024-03-15T07:10:46.201Z,6.07
2024-03-15T07:13:14.944Z,12.43
2024-03-15T07:15:44.757Z,8.93
2024-03-15T07:18:14.562Z,11.60
2024-03-15T07:20:43.615Z,15.90
2024-03-15T07:23:12.653Z,9.70
2024-03-15T07:25:41.329Z,9.73
2024-03-15T07:28:10.350Z,8.20
2024-03-15T07:30:38.911Z,11.97
2024-03-15T07:33:08.537Z,9.20
2024-03-15T07:35:36.885Z,11.40
2024-03-15T07:38:06.286Z,10.03
2024-03-15T07:40:35.294Z,12.83
2024-03-15T07:43:03.536Z,7.80
2024-03-15T07:45:31.851Z,7.90
2024-03-15T07:48:00.183Z,12.43
2024-03-15T07:50:28.375Z,13.17
2024-03-15T07:52:57.479Z,16.17
2024-03-15T07:55:25.686Z,10.00
2024-03-15T07:57:54.344Z,13.83
2024-03-15T08:00:23.022Z,10.90
2024-03-15T08:02:51.252Z,10.40
2024-03-15T08:05:23.833Z,11.87
2024-03-15T08:07:51.998Z,15.80
2024-03-15T08:10:21.785Z,13.97
2024-03-15T08:12:50.013Z,12.00
2024-03-15T08:15:18.324Z,14.10
2024-03-15T08:20:18.432Z,7.57
2024-03-15T08:22:46.667Z,10.27
2024-03-15T08:25:15.100Z,11.17
2024-03-15T08:27:48.473Z,10.63
2024-03-15T08:30:18.601Z,9.80
2024-03-15T08:32:46.799Z,12.17
2024-03-15T08:35:16.512Z,6.13
2024-03-15T08:37:45.015Z,12.33
2024-03-15T08:40:14.494Z,8.67
2024-03-15T08:42:46.616Z,11.13
2024-03-15T08:45:16.135Z,15.13
2024-03-15T08:47:54.719Z,15.07
2024-03-15T08:50:33.989Z,15.43
2024-03-15T08:53:05.314Z,15.07
2024-03-15T08:55:35.134Z,13.80
2024-03-15T08:58:04.895Z,9.63
2024-03-15T09:00:33.639Z,10.60
2024-03-15T09:03:01.893Z,10.03
2024-03-15T09:05:30.119Z,8.07
2024-03-15T09:07:59.320Z,8.10
2024-03-15T09:10:28.524Z,10.23
2024-03-15T09:12:56.953Z,8.73
2024-03-15T09:15:25.173Z,12.13
2024-03-15T09:17:53.802Z,8.30
2024-03-15T09:20:29.020Z,8.07
2024-03-15T09:22:57.674Z,6.73
2024-03-15T09:25:28.302Z,6.80
2024-03-15T09:27:56.735Z,11.80
2024-03-15T09:30:30.518Z,6.23
2024-03-15T09:32:59.543Z,9.20
2024-03-15T09:35:27.802Z,6.67
2024-03-15T09:37:55.982Z,7.40
2024-03-15T09:40:26.164Z,7.23
2024-03-15T09:42:55.472Z,8.93
2024-03-15T09:45:25.240Z,8.03
2024-03-15T09:47:53.866Z,8.17
2024-03-15T09:50:23.184Z,6.00
2024-03-15T09:52:52.127Z,6.67
2024-03-15T09:55:21.371Z,5.33
2024-03-15T09:57:51.098Z,8.23
2024-03-15T10:00:24.341Z,6.50
2024-03-15T10:02:54.873Z,9.13
2024-03-15T10:05:23.361Z,10.50
2024-03-15T10:07:51.569Z,6.87
2024-03-15T10:10:19.720Z,7.87
2024-03-15T10:12:48.072Z,6.87
2024-03-15T10:15:16.342Z,6.90
2024-03-15T10:17:45.203Z,5.13
2024-03-15T10:20:15.322Z,3.23
2024-03-15T10:22:43.578Z,6.47
2024-03-15T10:25:16.524Z,4.53
2024-03-15T10:27:45.257Z,6.33
2024-03-15T10:30:16.347Z,4.50
2024-03-15T10:32:47.767Z,5.50
2024-03-15T10:35:17.399Z,4.80
2024-03-15T10:37:45.594Z,5.77
2024-03-15T10:40:14.554Z,6.03
2024-03-15T10:42:43.475Z,6.50
2024-03-15T10:45:13.478Z,7.40
2024-03-15T10:47:42.061Z,7.53
2024-03-15T10:50:12.396Z,7.03
2024-03-15T10:52:41.893Z,6.50
2024-03-15T10:55:15.406Z,6.33
2024-03-15T10:57:43.692Z,5.53
2024-03-15T11:00:17.435Z,8.60
2024-03-15T11:02:45.680Z,7.13
2024-03-15T11:05:18.608Z,7.93
2024-03-15T11:07:47.352Z,8.20
2024-03-15T11:10:16.072Z,7.70
2024-03-15T11:12:44.497Z,10.60
2024-03-15T11:15:16.619Z,8.77
2024-03-15T11:17:44.885Z,6.83
2024-03-15T11:20:14.486Z,7.53
2024-03-15T11:22:42.620Z,10.40
2024-03-15T11:25:18.514Z,9.80
2024-03-15T11:27:58.023Z,10.83
2024-03-15T11:30:28.717Z,9.60
2024-03-15T11:32:57.884Z,9.83
2024-03-15T11:35:26.091Z,8.93
2024-03-15T11:37:56.985Z,6.20
2024-03-15T11:40:27.305Z,7.70
2024-03-15T11:43:05.322Z,9.90
2024-03-15T11:45:37.323Z,9.57
2024-03-15T11:48:10.846Z,7.17
2024-03-15T11:50:39.580Z,9.83
2024-03-15T11:53:07.782Z,8.43
2024-03-15T11:55:36.118Z,11.57
2024-03-15T11:58:04.419Z,11.70
2024-03-15T12:00:32.775Z,12.43
2024-03-15T12:03:00.973Z,12.27
2024-03-15T12:05:29.116Z,10.03
2024-03-15T12:07:57.278Z,10.80
2024-03-15T12:10:25.538Z,8.57
2024-03-15T12:12:54.422Z,10.60
2024-03-15T12:15:29.685Z,8.60
2024-03-15T12:17:59.490Z,8.17
2024-03-15T12:20:29.303Z,7.53
2024-03-15T12:22:57.451Z,10.90
2024-03-15T12:25:25.616Z,12.00
2024-03-15T12:27:55.220Z,13.20
2024-03-15T12:30:23.509Z,11.50
2024-03-15T12:32:51.818Z,12.87
2024-03-15T12:35:19.974Z,5.57
2024-03-15T12:37:48.089Z,11.27
2024-03-15T12:40:18.666Z,8.87
2024-03-15T12:42:47.012Z,9.17
2024-03-15T12:45:16.431Z,8.77
2024-03-15T12:47:44.814Z,10.13
2024-03-15T12:50:16.055Z,11.97
2024-03-15T12:52:46.204Z,8.37
2024-03-15T12:55:15.539Z,12.20
2024-03-15T12:57:43.887Z,8.37
2024-03-15T13:00:14.963Z,8.17
2024-03-15T13:02:43.770Z,10.73
2024-03-15T13:05:12.007Z,9.30
2024-03-15T13:07:40.215Z,10.67
2024-03-15T13:10:08.622Z,13.37
2024-03-15T13:12:36.914Z,10.97
2024-03-15T13:15:06.019Z,13.77
2024-03-15T13:17:34.851Z,12.63
2024-03-15T13:20:03.154Z,13.07
2024-03-15T13:22:31.796Z,12.87
2024-03-15T13:25:00.021Z,13.53
2024-03-15T13:27:28.254Z,10.37
2024-03-15T13:29:56.475Z,15.80
2024-03-15T13:32:27.247Z,16.43
2024-03-15T13:34:57.205Z,14.10
2024-03-15T13:37:25.325Z,12.00
2024-03-15T13:39:53.793Z,11.00
2024-03-15T13:42:21.968Z,15.20
2024-03-15T13:44:50.125Z,13.63
2024-03-15T13:47:19.019Z,16.53
2024-03-15T13:49:47.864Z,16.93
2024-03-15T13:52:16.022Z,16.87
2024-03-15T13:54:44.240Z,24.53
2024-03-15T13:57:14.022Z,17.70
2024-03-15T13:59:42.210Z,19.47
2024-03-15T14:02:10.389Z,21.57
2024-03-15T14:04:38.550Z,17.83
2024-03-15T14:07:07.661Z,17.10
2024-03-15T14:09:35.952Z,21.83
2024-03-15T14:12:05.975Z,21.20
2024-03-15T14:14:33.352Z,16.83
2024-03-15T14:17:01.534Z,20.70
2024-03-15T14:19:30.229Z,17.57
2024-03-15T14:21:58.418Z,18.40
2024-03-15T14:24:26.693Z,18.03
2024-03-15T14:26:54.856Z,15.10
2024-03-15T14:29:23.001Z,18.47
2024-03-15T14:31:51.196Z,15.87
2024-03-15T14:34:19.879Z,22.33
2024-03-15T14:36:48.102Z,20.23
2024-03-15T14:39:16.387Z,16.67
2024-03-15T14:41:44.534Z,20.40
2024-03-15T14:44:12.689Z,17.37
2024-03-15T14:46:40.930Z,16.47
2024-03-15T14:49:09.892Z,19.90
2024-03-15T14:51:38.055Z,20.17
2024-03-15T14:54:08.587Z,17.33
2024-03-15T14:56:36.714Z,19.70
2024-03-15T14:59:05.660Z,19.70
2024-03-15T15:01:34.785Z,21.80
2024-03-15T15:04:03.310Z,17.57
2024-03-15T15:06:31.550Z,18.77
2024-03-15T15:08:59.790Z,20.50
2024-03-15T15:11:28.025Z,27.73
2024-03-15T15:13:56.203Z,21.93
2024-03-15T15:16:25.092Z,25.37
2024-03-15T15:18:53.380Z,25.50
2024-03-15T15:21:21.673Z,18.10
2024-03-15T15:23:49.851Z,28.80
2024-03-15T15:26:18.005Z,24.30
2024-03-15T15:28:46.916Z,19.80
2024-03-15T15:31:15.345Z,30.30
2024-03-15T15:33:45.528Z,32.13
2024-03-15T15:36:14.381Z,21.90
2024-03-15T15:38:42.601Z,20.77
2024-03-15T15:41:10.795Z,25.33
2024-03-15T15:43:39.001Z,24.93
2024-03-15T15:46:07.628Z,24.97
2024-03-15T15:48:36.013Z,20.03
2024-03-15T15:51:05.229Z,24.50
2024-03-15T15:53:33.344Z,21.47
2024-03-15T15:56:01.708Z,25.20
2024-03-15T15:58:29.897Z,27.17
2024-03-15T16:00:58.111Z,24.97
2024-03-15T16:03:26.636Z,21.13
2024-03-15T16:05:56.684Z,23.53
2024-03-15T16:08:25.286Z,31.93
2024-03-15T16:10:53.550Z,21.00
2024-03-15T16:13:23.311Z,30.40
2024-03-15T16:15:51.807Z,24.83
2024-03-15T16:18:20.088Z,26.40
2024-03-15T16:20:48.235Z,24.23
2024-03-15T16:23:16.761Z,27.27
2024-03-15T16:25:45.290Z,29.00
2024-03-15T16:28:13.545Z,28.00
2024-03-15T16:30:41.745Z,25.77
2024-03-15T16:33:12.932Z,28.43
2024-03-15T16:35:41.548Z,27.20
2024-03-15T16:38:09.677Z,25.80
2024-03-15T16:40:37.855Z,25.70
2024-03-15T16:43:06.372Z,29.83
2024-03-15T16:45:35.147Z,22.07
2024-03-15T16:48:03.413Z,30.90
2024-03-15T16:50:31.526Z,25.33
2024-03-15T16:52:58.691Z,27.43
2024-03-15T16:55:29.100Z,30.57
2024-03-15T16:57:57.919Z,23.40
2024-03-15T17:00:26.217Z,22.53
2024-03-15T17:02:54.435Z,28.83
2024-03-15T17:05:22.553Z,30.47
2024-03-15T17:07:52.870Z,22.43
2024-03-15T17:10:21.318Z,24.37
2024-03-15T17:12:49.547Z,20.30
2024-03-15T17:15:17.722Z,26.57
2024-03-15T17:17:46.064Z,18.20
2024-03-15T17:20:17.442Z,32.77
2024-03-15T17:22:46.278Z,21.20
2024-03-15T17:25:14.809Z,21.63
2024-03-15T17:27:43.066Z,21.70
2024-03-15T17:30:12.044Z,20.27
2024-03-15T17:32:42.008Z,23.50
2024-03-15T17:35:10.914Z,22.97
2024-03-15T17:37:39.067Z,27.77
2024-03-15T17:40:10.913Z,29.70
2024-03-15T17:42:39.933Z,23.47
2024-03-15T17:45:10.635Z,26.23
2024-03-15T17:47:39.902Z,27.80
2024-03-15T17:50:09.290Z,28.13
2024-03-15T17:52:39.355Z,30.10
2024-03-15T17:55:09.492Z,25.87
2024-03-15T17:57:38.706Z,27.83
2024-03-15T18:00:13.844Z,37.83
2024-03-15T18:02:42.666Z,25.50
2024-03-15T18:05:12.310Z,26.53
2024-03-15T18:07:40.762Z,28.13
2024-03-15T18:10:10.717Z,29.50
2024-03-15T18:12:40.088Z,29.50
2024-03-15T18:15:08.652Z,28.70
2024-03-15T18:17:36.898Z,31.70
2024-03-15T18:20:05.330Z,32.23
2024-03-15T18:22:33.497Z,33.87
2024-03-15T18:25:03.176Z,31.97
2024-03-15T18:27:31.415Z,32.17
2024-03-15T18:29:59.599Z,27.37
2024-03-15T18:32:29.260Z,41.40
2024-03-15T18:34:57.512Z,30.33
2024-03-15T18:37:25.694Z,33.73
2024-03-15T18:39:56.274Z,30.13
2024-03-15T18:42:24.563Z,28.67
2024-03-15T18:44:52.882Z,29.60
2024-03-15T18:47:21.078Z,34.20
2024-03-15T18:49:52.002Z,29.70
2024-03-15T18:52:20.230Z,35.37
2024-03-15T18:54:50.565Z,28.23
2024-03-15T18:57:19.175Z,35.30
2024-03-15T18:59:47.758Z,25.27
2024-03-15T19:02:17.523Z,35.67
2024-03-15T19:04:48.266Z,32.60
2024-03-15T19:07:17.370Z,29.87
2024-03-15T19:09:46.908Z,26.57
2024-03-15T19:12:15.197Z,32.83
2024-03-15T19:14:43.386Z,34.73
2024-03-15T19:17:13.618Z,34.97
2024-03-15T19:19:42.026Z,32.63
2024-03-15T19:22:10.189Z,28.97
2024-03-15T19:24:38.459Z,31.67
2024-03-15T19:27:07.298Z,28.47
2024-03-15T19:29:35.485Z,29.03
2024-03-15T19:32:03.926Z,26.40
2024-03-15T19:34:32.117Z,28.47
2024-03-15T19:37:00.407Z,19.43
2024-03-15T19:39:28.664Z,18.27
2024-03-15T19:41:56.803Z,19.10
2024-03-15T19:44:24.907Z,18.50
2024-03-15T19:46:53.084Z,15.13
2024-03-15T19:49:21.272Z,21.90
2024-03-15T19:51:49.426Z,15.97
2024-03-15T19:54:17.668Z,16.33
2024-03-15T19:56:45.914Z,15.47
2024-03-15T19:59:16.049Z,16.80
2024-03-15T20:01:44.569Z,17.60
2024-03-15T20:04:13.758Z,19.53
2024-03-15T20:06:43.166Z,18.50
2024-03-15T20:09:14.290Z,20.20
2024-03-15T20:11:42.936Z,16.83
2024-03-15T20:14:12.083Z,19.03
2024-03-15T20:16:40.223Z,20.90
2024-03-15T20:19:08.460Z,18.53
2024-03-15T20:21:37.483Z,19.50
2024-03-15T20:24:07.198Z,22.43
2024-03-15T20:26:35.844Z,23.83
2024-03-15T20:29:04.121Z,25.63
2024-03-15T20:31:32.287Z,30.53
2024-03-15T20:34:00.873Z,22.47
2024-03-15T20:36:29.607Z,26.73
2024-03-15T20:38:58.934Z,20.50
2024-03-15T20:41:27.130Z,29.13
2024-03-15T20:43:55.599Z,31.37
2024-03-15T20:46:24.419Z,24.37
2024-03-15T20:48:53.004Z,25.67
2024-03-15T20:51:24.377Z,26.70
2024-03-15T20:53:53.282Z,22.10
2024-03-15T20:56:21.707Z,21.00
2024-03-15T20:58:51.341Z,20.23
2024-03-15T21:01:19.802Z,26.70
2024-03-15T21:03:50.161Z,20.20
2024-03-15T21:06:19.102Z,19.83
2024-03-15T21:08:47.736Z,16.67
2024-03-15T21:11:16.102Z,21.43
2024-03-15T21:13:45.688Z,22.73
2024-03-15T21:16:15.808Z,21.70
2024-03-15T21:18:44.204Z,22.67
2024-03-15T21:21:12.430Z,18.70
2024-03-15T21:23:40.786Z,24.70
2024-03-15T21:26:13.164Z,24.30
2024-03-15T21:28:41.853Z,27.50
2024-03-15T21:31:10.505Z,21.10
2024-03-15T21:33:38.891Z,21.73
2024-03-15T21:36:09.805Z,22.17
2024-03-15T21:38:39.422Z,25.57
2024-03-15T21:41:07.706Z,20.00
2024-03-15T21:43:35.863Z,23.27
2024-03-15T21:46:06.376Z,19.90
2024-03-15T21:48:37.201Z,23.50
2024-03-15T21:51:06.572Z,26.67
2024-03-15T21:53:34.934Z,17.10
2024-03-15T21:56:06.274Z,22.90
2024-03-15T21:58:34.493Z,21.60
2024-03-15T22:01:03.227Z,24.13
2024-03-15T22:03:33.267Z,22.83
2024-03-15T22:06:01.458Z,22.83
2024-03-15T22:08:29.727Z,22.33
2024-03-15T22:10:57.886Z,20.07
2024-03-15T22:13:27.005Z,24.30
2024-03-15T22:15:56.216Z,22.27
2024-03-15T22:18:24.515Z,15.50
2024-03-15T22:20:52.763Z,20.33
2024-03-15T22:23:20.951Z,19.93
2024-03-15T22:25:50.371Z,13.93
2024-03-15T22:28:18.896Z,14.63
2024-03-15T22:30:51.630Z,14.83
2024-03-15T22:33:20.088Z,14.57
2024-03-15T22:35:49.030Z,14.80
2024-03-15T22:38:17.449Z,15.97
2024-03-15T22:40:45.657Z,15.90
2024-03-15T22:43:13.829Z,16.17
2024-03-15T22:45:42.459Z,13.33
2024-03-15T22:48:10.678Z,12.47
2024-03-15T22:50:39.036Z,11.13
2024-03-15T22:53:07.679Z,15.27
2024-03-15T22:55:35.921Z,14.73
2024-03-15T22:58:04.514Z,10.27
2024-03-15T23:00:33.192Z,17.80
2024-03-15T23:03:01.491Z,13.80
2024-03-15T23:05:29.684Z,13.27
2024-03-15T23:07:58.102Z,9.50
2024-03-15T23:10:26.402Z,14.40
2024-03-15T23:12:55.577Z,12.60
2024-03-15T23:15:24.197Z,17.67
2024-03-15T23:17:53.898Z,17.50
2024-03-15T23:20:22.646Z,8.53
2024-03-15T23:22:52.820Z,12.20
2024-03-15T23:25:22.351Z,19.47
2024-03-15T23:27:50.721Z,12.63
2024-03-15T23:30:19.757Z,15.70
2024-03-15T23:32:48.075Z,15.63
2024-03-15T23:35:16.739Z,14.17
2024-03-15T23:37:45.107Z,16.63
2024-03-15T23:40:13.955Z,13.83
2024-03-15T23:42:42.275Z,20.30
2024-03-15T23:45:10.646Z,9.87
2024-03-15T23:47:38.828Z,11.30
2024-03-15T23:50:08.109Z,12.17
2024-03-15T23:52:36.255Z,16.70
2024-03-15T23:55:08.617Z,15.13
2024-03-15T23:57:37.552Z,15.50
